Chadstone Weather > Observations for 15/10/20

Select Day:



Observations
Time Temp Hum DP Wind Gust Dir Rain >9am Press
C % C kph kph mm hPa
00:00 18.8 70 13.2 4.2 8.6 N 0.0 1023.2
00:10 18.7 70 13.1 3.6 7.2 N 0.0 1023.1
00:20 18.7 70 13.1 3.7 8.6 NNW 0.0 1023.0
00:30 18.6 70 13.0 4.4 9.7 NNW 0.0 1022.9
00:40 18.6 71 13.2 5.0 9.7 NNW 0.0 1022.9
00:50 18.7 70 13.1 5.8 11.2 N 0.0 1022.8
01:00 18.8 70 13.2 5.4 11.2 NNE 0.0 1022.7
01:10 18.6 70 13.0 2.3 6.1 N 0.0 1022.3
01:20 18.2 71 12.9 0.7 3.6 N 0.0 1022.2
01:30 17.8 72 12.7 2.1 6.1 N 0.0 1022.0
01:40 17.7 72 12.6 2.1 6.1 NNE 0.0 1021.6
01:50 17.6 73 12.7 3.0 6.1 NNE 0.0 1021.5
02:00 17.7 72 12.6 4.5 13.3 N 0.0 1021.3
02:10 18.0 71 12.7 5.1 11.2 N 0.0 1020.8
02:20 18.1 70 12.6 5.3 12.2 NNW 0.0 1020.7
02:30 18.3 68 12.3 7.7 15.8 NNW 0.0 1020.5
02:40 18.4 67 12.2 7.1 12.2 N 0.0 1020.4
02:50 18.6 65 11.9 5.3 13.3 N 0.0 1020.4
03:00 18.6 65 11.9 2.4 5.0 N 0.0 1020.1
03:10 18.5 65 11.8 2.7 9.7 NNW 0.0 1020.0
03:20 18.6 64 11.7 3.7 9.7 N 0.0 1019.8
03:30 18.6 63 11.4 4.4 8.6 NNW 0.0 1019.5
03:40 18.5 62 11.1 4.3 8.6 N 0.0 1019.3
03:50 18.5 62 11.1 4.2 9.7 N 0.0 1019.2
04:00 18.4 62 11.0 4.2 8.6 N 0.0 1019.1
04:10 18.3 62 10.9 4.7 9.7 NNE 0.0 1018.9
04:20 18.3 61 10.7 5.4 9.7 NNE 0.0 1018.8
04:30 18.3 61 10.7 4.8 8.6 N 0.0 1018.4
04:40 18.3 61 10.7 5.7 11.2 NE 0.0 1018.3
04:50 18.4 60 10.5 6.1 14.8 NW 0.0 1018.4
05:00 18.5 60 10.6 6.3 11.2 N 0.0 1018.2
05:10 18.6 59 10.4 6.7 13.3 N 0.0 1018.1
05:20 18.8 59 10.6 6.2 12.2 NNW 0.0 1018.0
05:30 18.9 58 10.5 6.0 12.2 N 0.0 1018.1
05:40 18.9 58 10.5 5.4 11.2 NNW 0.0 1018.2
05:50 18.9 59 10.7 5.5 12.2 N 0.0 1018.1
06:00 18.7 59 10.5 4.5 11.2 N 0.0 1017.9
06:10 18.7 59 10.5 4.7 11.2 N 0.0 1018.0
06:20 18.6 59 10.4 4.4 9.7 N 0.0 1017.8
06:30 18.5 59 10.3 5.4 11.2 NNW 0.0 1017.9
06:40 18.8 59 10.6 7.4 13.3 N 0.0 1017.9
06:50 19.1 57 10.4 8.6 15.8 N 0.0 1017.9
07:00 19.4 56 10.4 7.7 15.8 N 0.0 1017.8
07:10 19.8 55 10.5 9.3 18.4 N 0.0 1017.9
07:20 20.0 54 10.4 10.8 19.4 NW 0.0 1017.8
07:30 20.1 55 10.8 11.1 19.4 N 0.0 1017.6
07:40 20.4 55 11.1 9.8 20.9 N 0.0 1017.5
07:50 20.7 54 11.1 9.7 24.5 NNW 0.0 1017.3
08:00 21.0 53 11.1 12.1 24.5 N 0.0 1017.2
08:10 21.5 52 11.2 12.0 28.1 N 0.0 1017.0
08:20 22.1 48 10.6 12.0 25.6 NNW 0.0 1017.0
08:30 22.4 48 10.9 15.0 25.6 N 0.0 1017.1
08:40 22.4 48 10.9 11.4 22.0 NNW 0.0 1017.0
08:50 22.6 46 10.4 14.4 30.6 NNW 0.0 1016.8
09:00 22.9 46 10.7 13.8 31.7 NNW 0.0 1016.8
09:10 22.9 45 10.4 17.3 33.1 NW 0.0 1016.6
09:20 23.0 46 10.8 16.1 31.7 NW 0.0 1016.6
09:30 23.0 46 10.8 15.0 33.1 NW 0.0 1016.7
09:40 22.9 46 10.7 14.5 29.5 NW 0.0 1016.7
09:50 22.9 46 10.7 17.7 34.2 NW 0.0 1016.6
10:00 22.8 48 11.2 14.8 29.5 NW 0.0 1016.5
10:10 22.7 49 11.5 14.0 29.5 NW 0.0 1016.4
10:20 22.6 49 11.4 13.7 25.6 NW 0.0 1016.5
10:30 22.5 50 11.6 14.9 28.1 N 0.0 1016.3
10:40 22.7 51 12.1 14.6 28.1 NNW 0.0 1016.4
10:50 22.6 51 12.0 15.2 29.5 NNW 0.0 1016.3
11:00 22.5 51 11.9 17.8 29.5 NNW 0.0 1016.6
11:10 22.4 51 11.8 15.5 35.6 NNW 0.0 1017.1
11:20 22.3 52 12.0 17.6 36.7 NW 0.0 1017.0
11:30 22.3 53 12.3 15.6 34.2 NW 0.0 1017.1
11:40 22.3 53 12.3 15.6 31.7 NNW 0.0 1016.9
11:50 22.3 53 12.3 15.2 33.1 NNW 0.0 1017.6
12:00 22.2 55 12.7 9.4 22.0 W 0.0 1017.7
12:10 22.0 57 13.1 19.4 34.2 WNW 0.0 1017.8
12:20 22.0 57 13.1 5.8 15.8 W 0.0 1018.1
12:30 21.9 58 13.3 8.8 20.9 NW 0.0 1017.5
12:40 21.9 58 13.3 9.5 20.9 WNW 0.0 1017.4
12:50 22.1 57 13.2 5.8 12.2 WNW 0.0 1017.4
13:00 22.2 56 13.0 8.3 24.5 NW 0.0 1017.1
13:10 22.2 56 13.0 7.6 15.8 NW 0.0 1017.1
13:20 22.3 56 13.1 9.3 22.0 NNW 0.0 1017.0
13:30 22.3 56 13.1 12.8 25.6 NW 0.0 1016.8
13:40 22.4 57 13.5 9.3 23.4 NNW 0.0 1016.8
13:50 22.3 57 13.4 9.7 17.3 NW 0.0 1016.8
14:00 22.2 58 13.6 7.9 14.8 NW 0.0 1016.7
14:10 22.1 59 13.7 5.1 9.7 N 0.0 1016.9
14:20 22.0 60 13.9 5.2 11.2 NNW 0.0 1016.9
14:30 22.0 60 13.9 5.4 14.8 NNW 0.0 1016.5
14:40 22.1 59 13.7 5.7 12.2 N 0.0 1016.5
14:50 22.2 58 13.6 6.8 13.3 NW 0.0 1016.3
15:00 22.4 58 13.7 4.9 11.2 NW 0.0 1016.0
15:10 22.5 57 13.6 5.6 12.2 NNW 0.0 1016.0
15:20 22.6 57 13.7 5.2 12.2 NNW 0.0 1015.9
15:30 22.7 57 13.8 6.3 12.2 NW 0.0 1016.0
15:40 22.8 57 13.9 7.0 12.2 NW 0.0 1016.0
15:50 22.8 58 14.1 7.6 12.2 NW 0.0 1015.9
16:00 22.7 58 14.0 8.2 19.4 NW 0.0 1015.9
16:10 21.6 58 13.0 8.7 28.1 WNW 0.0 1017.6
16:20 18.7 69 12.9 8.4 24.5 S 0.0 1017.9
16:30 17.7 73 12.8 6.9 18.4 S 0.0 1018.5
16:40 17.1 75 12.6 6.4 18.4 WSW 0.0 1018.7
16:50 16.8 78 13.0 5.0 18.4 SW 0.0 1019.2
17:00 16.6 79 13.0 5.1 22.0 N 0.0 1019.5
17:10 16.5 80 13.0 5.2 17.3 SE 0.0 1019.8
17:20 16.3 81 13.0 4.8 14.8 SW 0.0 1020.2
17:30 16.1 82 13.0 3.8 12.2 SE 0.0 1020.5
17:40 16.0 83 13.1 4.8 17.3 SSW 0.0 1020.8
17:50 15.9 84 13.2 2.9 8.6 SW 0.0 1021.1
18:00 16.0 84 13.3 1.3 6.1 SSE 0.0 1021.2
18:10 15.8 85 13.3 1.6 9.7 SSW 0.0 1021.3
18:20 15.6 86 13.3 1.2 7.2 SW 0.0 1021.0
18:30 15.5 87 13.4 0.6 5.0 SSW 0.0 1021.1
18:40 15.6 88 13.6 1.4 5.0 SW 0.0 1021.1
18:50 15.8 89 14.0 1.0 3.6 WNW 0.6 1021.2
19:00 15.9 89 14.1 0.8 3.6 N 0.9 1021.0
19:10 15.9 89 14.1 1.7 6.1 NNE 0.9 1021.3
19:20 15.9 90 14.3 0.9 3.6 N 0.9 1021.2
19:30 15.9 90 14.3 1.0 3.6 NE 0.9 1021.3
19:40 15.8 91 14.3 0.6 3.6 N 0.9 1021.3
19:50 15.9 91 14.4 0.1 2.5 N 1.2 1021.3
20:00 15.9 91 14.4 0.3 8.6 S 1.2 1021.7
20:10 14.9 91 13.5 5.4 14.8 SSE 1.5 1021.8
20:20 14.3 91 12.9 5.7 13.3 SSW 1.5 1022.0
20:30 14.0 92 12.7 3.7 12.2 SSW 1.5 1022.3
20:40 13.8 94 12.9 3.0 13.3 SW 1.5 1022.6
20:50 13.8 95 13.0 3.8 18.4 SSW 1.5 1022.9
21:00 13.7 95 12.9 3.9 13.3 S 1.5 1023.1
21:10 13.4 94 12.5 4.0 17.3 S 1.5 1023.5
21:20 13.4 94 12.5 2.9 11.2 SSW 1.5 1023.7
21:30 13.5 94 12.6 1.9 9.7 S 1.5 1024.1
21:40 13.4 94 12.5 2.8 13.3 W 1.5 1024.2
21:50 13.4 94 12.5 1.8 7.2 SSW 1.5 1024.3
22:00 13.4 94 12.5 0.7 8.6 SSW 1.5 1024.4
22:10 13.4 93 12.3 1.9 11.2 NNE 1.5 1024.6
22:20 13.2 93 12.1 3.8 13.3 SSW 1.5 1024.7
22:30 12.9 93 11.8 2.6 12.2 SSW 1.5 1024.9
22:40 12.8 93 11.7 2.3 11.2 SE 1.5 1024.8
22:50 12.7 93 11.6 2.1 11.2 S 1.5 1024.9
23:00 12.7 92 11.4 3.2 17.3 SSE 1.5 1024.8
23:10 12.7 92 11.4 4.2 13.3 S 1.5 1025.0
23:20 12.7 91 11.3 4.4 12.2 S 1.5 1025.2
23:30 12.8 90 11.2 5.7 14.8 S 1.5 1025.2
23:40 12.8 90 11.2 4.7 13.3 SSE 1.5 1025.5
23:50 12.8 89 11.0 3.0 11.2 SSE 1.5 1025.5